createdAt,value
2022-11-08T00:00:38.502Z,100646.00
2022-11-08T00:03:10.667Z,100642.59
2022-11-08T00:05:53.699Z,100642.69
2022-11-08T00:08:35.659Z,100645.19
2022-11-08T00:11:17.873Z,100645.19
2022-11-08T00:14:03.044Z,100649.81
2022-11-08T00:16:32.820Z,100644.75
2022-11-08T00:19:04.919Z,100650.09
2022-11-08T00:21:34.343Z,100647.44
2022-11-08T00:24:03.821Z,100651.78
2022-11-08T00:26:33.191Z,100660.59
2022-11-08T00:29:02.670Z,100663.78
2022-11-08T00:31:32.160Z,100667.38
2022-11-08T00:34:04.311Z,100657.16
2022-11-08T00:36:33.725Z,100655.44
2022-11-08T00:39:03.301Z,100657.09
2022-11-08T00:41:32.748Z,100660.44
2022-11-08T00:44:02.214Z,100664.03
2022-11-08T00:46:31.652Z,100665.69
2022-11-08T00:49:03.857Z,100662.13
2022-11-08T00:51:33.348Z,100664.56
2022-11-08T00:54:02.822Z,100663.69
2022-11-08T00:56:32.344Z,100659.44
2022-11-08T00:59:02.202Z,100668.91
2022-11-08T01:01:31.744Z,100657.75
2022-11-08T01:04:03.994Z,100662.03
2022-11-08T01:06:33.935Z,100658.41
2022-11-08T01:09:03.510Z,100653.13
2022-11-08T01:11:33.068Z,100662.66
2022-11-08T01:14:03.596Z,100662.53
2022-11-08T01:16:35.602Z,100652.19
2022-11-08T01:19:07.681Z,100660.91
2022-11-08T01:21:37.486Z,100661.50
2022-11-08T01:24:07.962Z,100669.97
2022-11-08T01:26:37.635Z,100670.69
2022-11-08T01:29:07.177Z,100670.69
2022-11-08T01:31:36.680Z,100666.47
2022-11-08T01:34:08.811Z,100660.28
2022-11-08T01:36:38.235Z,100657.75
2022-11-08T01:39:07.768Z,100655.25
2022-11-08T01:41:37.293Z,100648.19
2022-11-08T01:44:06.753Z,100656.78
2022-11-08T01:46:41.376Z,100654.09
2022-11-08T01:49:35.414Z,100650.53
2022-11-08T01:52:13.069Z,100649.69
2022-11-08T01:54:44.720Z,100648.66
2022-11-08T01:57:17.940Z,100641.81
2022-11-08T01:59:48.106Z,100648.66
2022-11-08T02:02:17.989Z,100648.66
2022-11-08T02:04:50.439Z,100652.88
2022-11-08T02:07:20.385Z,100641.56
2022-11-08T02:09:50.723Z,100647.50
2022-11-08T02:12:23.433Z,100644.03
2022-11-08T02:14:52.863Z,100633.69
2022-11-08T02:17:22.473Z,100625.84
2022-11-08T02:19:54.650Z,100629.19
2022-11-08T02:22:29.816Z,100621.47
2022-11-08T02:25:01.986Z,100621.47
2022-11-08T02:27:31.501Z,100623.06
2022-11-08T02:30:01.004Z,100623.13
2022-11-08T02:32:40.075Z,100615.44
2022-11-08T02:35:13.441Z,100618.94
2022-11-08T02:37:42.949Z,100618.13
2022-11-08T02:40:15.264Z,100621.66
2022-11-08T02:42:44.654Z,100622.53
2022-11-08T02:45:14.184Z,100609.72
2022-11-08T02:47:43.549Z,100615.97
2022-11-08T02:50:13.539Z,100613.53
2022-11-08T02:52:42.923Z,100623.94
2022-11-08T02:55:15.087Z,100609.28
2022-11-08T02:57:44.516Z,100612.75
2022-11-08T03:00:16.018Z,100614.78
2022-11-08T03:02:45.799Z,100610.59
2022-11-08T03:05:15.213Z,100615.69
2022-11-08T03:07:44.657Z,100609.69
2022-11-08T03:10:16.980Z,100607.16
2022-11-08T03:12:46.827Z,100625.19
2022-11-08T03:15:16.748Z,100626.09
2022-11-08T03:17:46.244Z,100625.31
2022-11-08T03:20:15.852Z,100615.75
2022-11-08T03:22:45.227Z,100623.53
2022-11-08T03:25:17.615Z,100623.44
2022-11-08T03:27:46.985Z,100617.34
2022-11-08T03:30:16.604Z,100615.47
2022-11-08T03:32:46.847Z,100617.94
2022-11-08T03:35:16.605Z,100613.59
2022-11-08T03:37:52.827Z,100615.31
2022-11-08T03:40:25.518Z,100618.63
2022-11-08T03:42:55.395Z,100606.38
2022-11-08T03:45:24.829Z,100616.59
2022-11-08T03:47:54.264Z,100611.25
2022-11-08T03:50:23.765Z,100613.03
2022-11-08T03:52:54.798Z,100605.97
2022-11-08T03:55:29.186Z,100612.75
2022-11-08T03:57:58.998Z,100607.53
2022-11-08T04:00:31.423Z,100615.09
2022-11-08T04:03:05.566Z,100611.47
2022-11-08T04:05:35.111Z,100615.84
2022-11-08T04:08:04.903Z,100605.31
2022-11-08T04:10:37.332Z,100613.13
2022-11-08T04:13:19.260Z,100609.38
2022-11-08T04:15:49.553Z,100605.97
2022-11-08T04:18:31.463Z,100607.63
2022-11-08T04:21:15.828Z,100611.84
2022-11-08T04:23:45.228Z,100608.41
2022-11-08T04:26:17.525Z,100591.91
2022-11-08T04:28:47.315Z,100589.34
2022-11-08T04:31:18.731Z,100595.19
2022-11-08T04:33:48.656Z,100594.22
2022-11-08T04:36:19.393Z,100583.72
2022-11-08T04:38:50.731Z,100586.31
2022-11-08T04:41:24.548Z,100577.50
2022-11-08T04:43:54.948Z,100592.09
2022-11-08T04:46:26.257Z,100581.66
2022-11-08T04:48:57.276Z,100588.34
2022-11-08T04:51:29.399Z,100585.72
2022-11-08T04:53:59.777Z,100582.13
2022-11-08T04:56:33.302Z,100588.06
2022-11-08T04:59:06.208Z,100576.97
2022-11-08T05:01:39.118Z,100571.97
2022-11-08T05:04:08.615Z,100575.50
2022-11-08T05:06:38.012Z,100572.88
2022-11-08T05:09:07.433Z,100581.31
2022-11-08T05:11:39.487Z,100571.75
2022-11-08T05:14:08.996Z,100578.56
2022-11-08T05:16:38.508Z,100571.50
2022-11-08T05:19:12.904Z,100574.81
2022-11-08T05:21:55.231Z,100562.75
2022-11-08T05:24:24.728Z,100561.03
2022-11-08T05:26:56.723Z,100568.66
2022-11-08T05:29:26.203Z,100567.78
2022-11-08T05:31:55.691Z,100563.38
2022-11-08T05:34:25.205Z,100562.50
2022-11-08T05:36:54.705Z,100563.19
2022-11-08T05:39:27.219Z,100558.88
2022-11-08T05:42:03.565Z,100564.78
2022-11-08T05:44:33.067Z,100555.22
2022-11-08T05:47:02.571Z,100555.97
2022-11-08T05:49:32.101Z,100551.81
2022-11-08T05:52:01.789Z,100546.31
2022-11-08T05:54:31.295Z,100540.13
2022-11-08T05:57:03.389Z,100546.03
2022-11-08T05:59:33.128Z,100541.16
2022-11-08T06:02:02.548Z,100546.31
2022-11-08T06:04:32.212Z,100540.19
2022-11-08T06:07:01.664Z,100541.03
2022-11-08T06:09:31.092Z,100537.63
2022-11-08T06:12:03.200Z,100537.34
2022-11-08T06:14:34.746Z,100538.16
2022-11-08T06:17:04.255Z,100533.72
2022-11-08T06:19:33.684Z,100537.25
2022-11-08T06:22:03.139Z,100529.50
2022-11-08T06:24:32.640Z,100531.91
2022-11-08T06:27:04.626Z,100529.19
2022-11-08T06:29:34.367Z,100527.38
2022-11-08T06:32:03.807Z,100528.34
2022-11-08T06:34:33.305Z,100526.38
2022-11-08T06:37:02.868Z,100523.94
2022-11-08T06:39:32.641Z,100525.50
2022-11-08T06:42:04.755Z,100518.72
2022-11-08T06:44:34.271Z,100523.97
2022-11-08T06:47:03.971Z,100521.38
2022-11-08T06:49:33.464Z,100508.69
2022-11-08T06:52:02.916Z,100519.88
2022-11-08T06:54:32.710Z,100520.63
2022-11-08T06:57:04.769Z,100528.44
2022-11-08T06:59:34.196Z,100530.25
2022-11-08T07:02:03.747Z,100530.19
2022-11-08T07:04:33.337Z,100523.34
2022-11-08T07:07:02.848Z,100530.69
2022-11-08T07:09:32.627Z,100525.69
2022-11-08T07:12:04.657Z,100525.94
2022-11-08T07:14:34.220Z,100527.91
2022-11-08T07:17:03.746Z,100529.84
2022-11-08T07:19:33.234Z,100525.94
2022-11-08T07:22:02.775Z,100526.38
2022-11-08T07:24:32.287Z,100528.19
2022-11-08T07:27:04.278Z,100524.44
2022-11-08T07:29:33.668Z,100524.31
2022-11-08T07:32:03.125Z,100524.13
2022-11-08T07:34:33.828Z,100519.88
2022-11-08T07:37:03.251Z,100521.56
2022-11-08T07:39:32.767Z,100520.63
2022-11-08T07:42:04.844Z,100522.44
2022-11-08T07:44:34.376Z,100522.69
2022-11-08T07:47:03.857Z,100524.69
2022-11-08T07:49:33.409Z,100516.13
2022-11-08T07:52:02.852Z,100517.25
2022-11-08T07:54:32.344Z,100528.34
2022-11-08T07:57:04.469Z,100517.19
2022-11-08T07:59:33.912Z,100521.63
2022-11-08T08:02:03.394Z,100518.50
2022-11-08T08:04:33.236Z,100521.00
2022-11-08T08:07:02.750Z,100527.03
2022-11-08T08:09:34.501Z,100525.44
2022-11-08T08:12:08.177Z,100517.94
2022-11-08T08:14:38.522Z,100525.78
2022-11-08T08:17:07.929Z,100526.97
2022-11-08T08:19:37.347Z,100527.31
2022-11-08T08:22:06.907Z,100529.28
2022-11-08T08:24:36.586Z,100538.25
2022-11-08T08:27:08.655Z,100549.81
2022-11-08T08:29:38.117Z,100550.03
2022-11-08T08:32:08.260Z,100554.44
2022-11-08T08:34:37.675Z,100561.53
2022-11-08T08:37:07.164Z,100562.56
2022-11-08T08:39:36.679Z,100562.69
2022-11-08T08:42:08.860Z,100559.97
2022-11-08T08:44:38.352Z,100564.44
2022-11-08T08:47:07.929Z,100566.09
2022-11-08T08:49:37.408Z,100566.09
2022-11-08T08:52:08.086Z,100564.44
2022-11-08T08:54:37.592Z,100562.13
2022-11-08T08:57:09.608Z,100559.72
2022-11-08T09:02:28.578Z,100557.06
2022-11-08T09:04:59.088Z,100561.81
2022-11-08T09:07:28.583Z,100557.66
2022-11-08T09:09:58.099Z,100554.44
2022-11-08T09:12:30.414Z,100556.84
2022-11-08T09:15:00.018Z,100554.31
2022-11-08T09:17:29.856Z,100553.75
2022-11-08T09:19:59.605Z,100553.19
2022-11-08T09:22:29.089Z,100548.22
2022-11-08T09:24:58.579Z,100554.53
2022-11-08T09:27:31.894Z,100554.00
2022-11-08T09:30:01.838Z,100558.47
2022-11-08T09:32:54.082Z,100560.91
2022-11-08T09:35:20.808Z,100559.19
2022-11-08T09:37:50.470Z,100550.78
2022-11-08T09:40:20.423Z,100558.66
2022-11-08T09:42:58.723Z,100555.19
2022-11-08T09:45:30.521Z,100556.25
2022-11-08T09:48:05.268Z,100560.78
2022-11-08T09:50:40.282Z,100563.31
2022-11-08T09:53:18.623Z,100563.50
2022-11-08T09:55:51.314Z,100565.13
2022-11-08T09:58:27.765Z,100565.19
2022-11-08T10:00:57.380Z,100557.44
2022-11-08T10:03:27.560Z,100555.72
2022-11-08T10:06:21.519Z,100555.63
2022-11-08T10:08:55.913Z,100556.50
2022-11-08T10:11:44.781Z,100551.38
2022-11-08T10:14:27.808Z,100556.66
2022-11-08T10:17:01.232Z,100549.22
2022-11-08T10:19:51.655Z,100545.38
2022-11-08T10:22:27.427Z,100533.25
2022-11-08T10:25:02.652Z,100534.47
2022-11-08T10:27:36.797Z,100524.78
2022-11-08T10:30:18.837Z,100525.41
2022-11-08T10:32:51.663Z,100510.03
2022-11-08T10:35:27.645Z,100501.59
2022-11-08T10:37:58.568Z,100490.75
2022-11-08T10:40:36.721Z,100485.88
2022-11-08T10:43:10.853Z,100481.88
2022-11-08T10:45:43.294Z,100492.06
2022-11-08T10:48:14.047Z,100488.38
2022-11-08T10:50:46.749Z,100481.97
2022-11-08T10:53:21.442Z,100485.53
2022-11-08T10:55:53.052Z,100486.38
2022-11-08T10:58:34.255Z,100481.19
2022-11-08T11:01:10.141Z,100465.50
2022-11-08T11:03:39.662Z,100464.31
2022-11-08T11:06:14.783Z,100461.56
2022-11-08T11:08:51.266Z,100451.56
2022-11-08T11:11:29.629Z,100451.59
2022-11-08T11:14:19.481Z,100460.72
2022-11-08T11:16:59.063Z,100453.69
2022-11-08T11:19:29.418Z,100454.69
2022-11-08T11:22:01.174Z,100451.34
2022-11-08T11:24:31.123Z,100443.00
2022-11-08T11:27:06.226Z,100443.13
2022-11-08T11:29:36.725Z,100442.53
2022-11-08T11:32:28.377Z,100453.75
2022-11-08T11:34:59.674Z,100446.88
2022-11-08T11:37:35.793Z,100445.56
2022-11-08T11:40:10.562Z,100462.16
2022-11-08T11:42:47.170Z,100452.81
2022-11-08T11:45:21.729Z,100463.97
2022-11-08T11:47:55.973Z,100466.50
2022-11-08T11:50:31.198Z,100453.66
2022-11-08T11:53:02.184Z,100454.56
2022-11-08T11:55:44.539Z,100445.25
2022-11-08T11:58:24.057Z,100445.34
2022-11-08T12:00:58.687Z,100445.31
2022-11-08T12:03:44.658Z,100436.09
2022-11-08T12:06:34.128Z,100429.94
2022-11-08T12:09:15.730Z,100427.50
2022-11-08T12:11:54.824Z,100423.25
2022-11-08T12:14:39.049Z,100418.13
2022-11-08T12:17:27.637Z,100416.59
2022-11-08T12:20:12.060Z,100420.19
2022-11-08T12:22:51.176Z,100413.34
2022-11-08T12:25:23.528Z,100422.97
2022-11-08T12:27:55.598Z,100417.78
2022-11-08T12:30:28.873Z,100421.22
2022-11-08T12:33:24.743Z,100416.94
2022-11-08T12:36:06.416Z,100428.19
2022-11-08T12:38:42.256Z,100434.22
2022-11-08T12:41:18.455Z,100430.00
2022-11-08T12:44:02.497Z,100439.53
2022-11-08T12:46:35.276Z,100432.72
2022-11-08T12:49:17.268Z,100438.00
2022-11-08T12:52:08.276Z,100443.22
2022-11-08T12:54:41.434Z,100442.44
2022-11-08T12:57:13.637Z,100444.22
2022-11-08T12:59:45.282Z,100439.16
2022-11-08T13:02:19.659Z,100443.47
2022-11-08T13:04:56.185Z,100439.22
2022-11-08T13:07:35.874Z,100434.03
2022-11-08T13:10:12.380Z,100441.78
2022-11-08T13:12:51.572Z,100447.03
2022-11-08T13:15:25.075Z,100443.47
2022-11-08T13:18:25.930Z,100439.16
2022-11-08T13:20:56.512Z,100441.84
2022-11-08T13:23:35.322Z,100437.69
2022-11-08T13:26:19.477Z,100443.19
2022-11-08T13:28:49.370Z,100448.69
2022-11-08T13:31:34.909Z,100451.50
2022-11-08T13:34:35.939Z,100448.84
2022-11-08T13:37:20.181Z,100440.25
2022-11-08T13:40:04.578Z,100451.31
2022-11-08T13:42:42.652Z,100435.66
2022-11-08T13:45:29.001Z,100429.41
2022-11-08T13:48:03.421Z,100438.81
2022-11-08T13:50:48.971Z,100435.25
2022-11-08T13:53:45.570Z,100417.06
2022-11-08T13:56:47.921Z,100421.38
2022-11-08T13:59:56.457Z,100425.44
2022-11-08T14:02:39.599Z,100426.97
2022-11-08T14:05:29.375Z,100419.13
2022-11-08T14:08:20.404Z,100418.38
2022-11-08T14:11:25.793Z,100426.81
2022-11-08T14:14:06.296Z,100419.03
2022-11-08T14:16:44.910Z,100418.94
2022-11-08T14:19:23.436Z,100421.44
2022-11-08T14:21:55.265Z,100428.38
2022-11-08T14:24:27.412Z,100417.16
2022-11-08T14:26:57.087Z,100413.75
2022-11-08T14:29:27.687Z,100405.00
2022-11-08T14:32:17.162Z,100410.94
2022-11-08T14:34:49.202Z,100411.84
2022-11-08T14:37:24.315Z,100402.25
2022-11-08T14:39:54.415Z,100404.84
2022-11-08T14:42:25.942Z,100414.34
2022-11-08T14:44:57.310Z,100404.81
2022-11-08T14:47:28.732Z,100409.94
2022-11-08T14:50:02.129Z,100399.53
2022-11-08T14:52:33.128Z,100400.38
2022-11-08T14:55:06.086Z,100413.38
2022-11-08T14:57:38.158Z,100412.50
2022-11-08T15:00:16.863Z,100415.13
2022-11-08T15:02:48.891Z,100411.69
2022-11-08T15:05:37.592Z,100402.16
2022-11-08T15:08:09.751Z,100406.47
2022-11-08T15:10:39.279Z,100404.72
2022-11-08T15:13:12.856Z,100395.09
2022-11-08T15:15:42.396Z,100387.28
2022-11-08T15:18:15.977Z,100383.09
2022-11-08T15:20:59.001Z,100377.03
2022-11-08T15:23:36.060Z,100382.28
2022-11-08T15:26:05.584Z,100378.84
2022-11-08T15:28:36.383Z,100388.34
2022-11-08T15:31:07.053Z,100402.97
2022-11-08T15:33:38.308Z,100396.97
2022-11-08T15:36:17.244Z,100404.75
2022-11-08T15:38:50.745Z,100396.13
2022-11-08T15:41:43.202Z,100397.97
2022-11-08T15:44:22.176Z,100403.09
2022-11-08T15:46:52.037Z,100409.91
2022-11-08T15:49:23.393Z,100407.22
2022-11-08T15:51:56.545Z,100406.34
2022-11-08T15:54:27.392Z,100405.44
2022-11-08T15:56:58.494Z,100403.75
2022-11-08T15:59:30.399Z,100400.13
2022-11-08T16:02:01.788Z,100404.47
2022-11-08T16:04:31.878Z,100397.53
2022-11-08T16:07:04.051Z,100397.53
2022-11-08T16:09:33.624Z,100394.06
2022-11-08T16:12:04.637Z,100387.22
2022-11-08T16:14:34.243Z,100398.41
2022-11-08T16:17:03.688Z,100414.84
2022-11-08T16:19:33.322Z,100410.56
2022-11-08T16:22:07.517Z,100414.00
2022-11-08T16:24:37.376Z,100412.19
2022-11-08T16:27:06.835Z,100397.41
2022-11-08T16:29:36.528Z,100390.38
2022-11-08T16:32:05.944Z,100392.19
2022-11-08T16:34:35.468Z,100390.44
2022-11-08T16:37:07.564Z,100396.41
2022-11-08T16:39:37.152Z,100387.09
2022-11-08T16:42:06.844Z,100384.53
2022-11-08T16:44:37.573Z,100391.38
2022-11-08T16:47:07.191Z,100387.00
2022-11-08T16:49:36.679Z,100387.00
2022-11-08T16:52:08.667Z,100395.56
2022-11-08T16:54:38.148Z,100409.47
2022-11-08T16:57:33.091Z,100411.16
2022-11-08T16:59:58.107Z,100416.44
2022-11-08T17:02:32.827Z,100420.72
2022-11-08T17:05:02.387Z,100421.63
2022-11-08T17:07:34.423Z,100425.91
2022-11-08T17:10:04.124Z,100426.81
2022-11-08T17:12:33.585Z,100432.94
2022-11-08T17:15:03.172Z,100425.16
2022-11-08T17:17:32.599Z,100433.78
2022-11-08T17:20:02.120Z,100439.03
2022-11-08T17:22:34.241Z,100435.69
2022-11-08T17:25:03.692Z,100441.66
2022-11-08T17:27:33.159Z,100445.16
2022-11-08T17:30:02.982Z,100445.94
2022-11-08T17:32:32.512Z,100451.09
2022-11-08T17:35:01.999Z,100452.81
2022-11-08T17:37:34.420Z,100450.38
2022-11-08T17:40:04.857Z,100449.63
2022-11-08T17:42:38.262Z,100451.38
2022-11-08T17:45:09.741Z,100453.31
2022-11-08T17:47:39.592Z,100442.91
2022-11-08T17:50:10.198Z,100450.69
2022-11-08T17:52:42.553Z,100443.75
2022-11-08T17:55:12.050Z,100450.72
2022-11-08T17:57:41.481Z,100445.44
2022-11-08T18:00:13.015Z,100441.28
2022-11-08T18:02:42.432Z,100456.00
2022-11-08T18:05:12.101Z,100454.31
2022-11-08T18:07:45.095Z,100439.59
2022-11-08T18:10:16.599Z,100449.84
2022-11-08T18:12:46.112Z,100451.53
2022-11-08T18:15:15.595Z,100451.47
2022-11-08T18:17:45.132Z,100454.97
2022-11-08T18:20:15.160Z,100454.13
2022-11-08T18:22:47.369Z,100455.88
2022-11-08T18:25:17.058Z,100448.03
2022-11-08T18:27:46.447Z,100449.78
2022-11-08T18:30:16.847Z,100445.41
2022-11-08T18:32:46.357Z,100436.78
2022-11-08T18:35:15.861Z,100436.81
2022-11-08T18:37:47.915Z,100437.63
2022-11-08T18:40:17.464Z,100431.50
2022-11-08T18:42:47.020Z,100432.44
2022-11-08T18:45:16.499Z,100429.84
2022-11-08T18:47:45.955Z,100422.06
2022-11-08T18:50:15.531Z,100429.84
2022-11-08T18:52:48.027Z,100419.47
2022-11-08T18:55:20.528Z,100418.53
2022-11-08T18:57:50.518Z,100420.31
2022-11-08T19:00:20.570Z,100422.00
2022-11-08T19:02:50.040Z,100423.69
2022-11-08T19:05:19.683Z,100421.91
2022-11-08T19:07:49.201Z,100419.22
2022-11-08T19:10:21.653Z,100422.81
2022-11-08T19:12:51.164Z,100415.97
2022-11-08T19:15:22.304Z,100404.91
2022-11-08T19:17:53.930Z,100412.63
2022-11-08T19:20:24.166Z,100418.72
2022-11-08T19:22:55.740Z,100412.63
2022-11-08T19:25:27.872Z,100399.69
2022-11-08T19:27:58.868Z,100401.47
2022-11-08T19:30:28.312Z,100394.66
2022-11-08T19:32:57.708Z,100384.28
2022-11-08T19:35:27.235Z,100373.16
2022-11-08T19:37:56.717Z,100371.41
2022-11-08T19:40:32.049Z,100357.50
2022-11-08T19:43:01.898Z,100368.66
2022-11-08T19:45:32.367Z,100357.38
2022-11-08T19:48:01.880Z,100357.38
2022-11-08T19:50:31.345Z,100356.56
2022-11-08T19:53:05.093Z,100347.84
2022-11-08T19:55:38.680Z,100358.13
2022-11-08T19:58:08.141Z,100349.59
2022-11-08T20:00:39.336Z,100352.19
2022-11-08T20:03:09.557Z,100354.66
2022-11-08T20:05:39.129Z,100352.91
2022-11-08T20:08:09.736Z,100371.00
2022-11-08T20:10:41.740Z,100358.13
2022-11-08T20:13:11.247Z,100363.28
2022-11-08T20:15:40.627Z,100362.38
2022-11-08T20:18:10.304Z,100367.44
2022-11-08T20:20:41.606Z,100368.28
2022-11-08T20:23:11.465Z,100373.38
2022-11-08T20:25:43.519Z,100382.00
2022-11-08T20:28:12.975Z,100379.34
2022-11-08T20:30:42.471Z,100384.53
2022-11-08T20:33:11.994Z,100383.53
2022-11-08T20:35:41.453Z,100387.78
2022-11-08T20:38:10.855Z,100396.34
2022-11-08T20:40:44.143Z,100396.41
2022-11-08T20:43:13.569Z,100394.59
2022-11-08T20:45:43.795Z,100400.59
2022-11-08T20:48:14.187Z,100403.84
2022-11-08T20:50:44.004Z,100403.78
2022-11-08T20:53:13.624Z,100410.78
2022-11-08T20:55:45.643Z,100398.66
2022-11-08T20:58:15.318Z,100413.28
2022-11-08T21:01:04.388Z,100418.41
2022-11-08T21:03:34.205Z,100412.31
2022-11-08T21:06:04.875Z,100395.97
2022-11-08T21:08:59.081Z,100409.84
2022-11-08T21:11:27.518Z,100391.69
2022-11-08T21:13:57.009Z,100411.41
2022-11-08T21:16:30.297Z,100406.28
2022-11-08T21:19:01.539Z,100415.81
2022-11-08T21:21:30.958Z,100411.56
2022-11-08T21:24:00.429Z,100395.19
2022-11-08T21:26:36.331Z,100400.28
2022-11-08T21:29:07.387Z,100408.03
2022-11-08T21:31:36.992Z,100403.69
2022-11-08T21:34:06.487Z,100405.34
2022-11-08T21:36:35.983Z,100406.13
2022-11-08T21:39:05.541Z,100406.28
2022-11-08T21:41:37.587Z,100419.09
2022-11-08T21:44:07.092Z,100387.31
2022-11-08T21:46:36.792Z,100404.44
2022-11-08T21:49:10.560Z,100403.38
2022-11-08T21:51:40.195Z,100406.13
2022-11-08T21:54:09.895Z,100404.44
2022-11-08T21:56:42.019Z,100411.31
2022-11-08T21:59:11.489Z,100407.03
2022-11-08T22:01:42.148Z,100409.47
2022-11-08T22:04:11.611Z,100405.19
2022-11-08T22:06:45.031Z,100410.34
2022-11-08T22:09:16.956Z,100413.75
2022-11-08T22:11:48.956Z,100407.63
2022-11-08T22:14:18.396Z,100424.81
2022-11-08T22:16:48.923Z,100409.56
2022-11-08T22:19:18.377Z,100408.66
2022-11-08T22:21:47.737Z,100416.59
2022-11-08T22:24:18.330Z,100413.97
2022-11-08T22:26:51.407Z,100410.53
2022-11-08T22:29:21.637Z,100404.34
2022-11-08T22:31:52.136Z,100406.84
2022-11-08T22:34:21.678Z,100408.50
2022-11-08T22:36:51.397Z,100392.97
2022-11-08T22:39:23.376Z,100405.94
2022-11-08T22:41:56.375Z,100409.31
2022-11-08T22:44:25.942Z,100408.41
2022-11-08T22:46:55.419Z,100401.53
2022-11-08T22:49:24.795Z,100402.53
2022-11-08T22:51:54.239Z,100409.19
2022-11-08T22:54:24.672Z,100407.34
2022-11-08T22:56:56.751Z,100404.72
2022-11-08T22:59:26.626Z,100399.44
2022-11-08T23:01:57.123Z,100402.84
2022-11-08T23:04:26.553Z,100403.75
2022-11-08T23:06:56.086Z,100383.00
2022-11-08T23:09:25.596Z,100382.06
2022-11-08T23:12:10.165Z,100388.91
2022-11-08T23:14:52.285Z,100397.69
2022-11-08T23:17:21.772Z,100382.03
2022-11-08T23:20:03.752Z,100396.63
2022-11-08T23:22:45.922Z,100392.25
2022-11-08T23:25:15.372Z,100382.94
2022-11-08T23:27:59.845Z,100390.66
2022-11-08T23:30:41.780Z,100389.00
2022-11-08T23:33:11.264Z,100392.34
2022-11-08T23:36:00.765Z,100404.38
2022-11-08T23:38:30.217Z,100412.78
2022-11-08T23:41:14.119Z,100409.28
2022-11-08T23:43:58.604Z,100403.16
2022-11-08T23:46:28.097Z,100416.06
2022-11-08T23:48:57.507Z,100415.19
2022-11-08T23:51:27.024Z,100414.25
2022-11-08T23:53:56.652Z,100413.47
2022-11-08T23:56:27.680Z,100396.31
2022-11-08T23:59:01.012Z,100400.63
